createdAt,value
2023-02-11T00:00:18.155Z,19.43
2023-02-11T00:02:47.755Z,17.90
2023-02-11T00:05:16.074Z,18.50
2023-02-11T00:07:42.633Z,18.45
2023-02-11T00:10:09.775Z,18.70
2023-02-11T00:12:37.077Z,16.80
2023-02-11T00:15:04.233Z,18.80
2023-02-11T00:17:32.039Z,18.48
2023-02-11T00:19:58.716Z,18.33
2023-02-11T00:22:26.705Z,17.90
2023-02-11T00:24:53.478Z,18.37
2023-02-11T00:27:20.049Z,18.25
2023-02-11T00:29:46.624Z,18.98
2023-02-11T00:32:13.231Z,17.13
2023-02-11T00:34:39.815Z,18.00
2023-02-11T00:37:06.789Z,17.43
2023-02-11T00:39:34.861Z,17.17
2023-02-11T00:42:01.542Z,18.02
2023-02-11T00:44:28.284Z,17.23
2023-02-11T00:46:54.842Z,15.80
2023-02-11T00:49:21.569Z,17.50
2023-02-11T00:51:48.123Z,17.60
2023-02-11T00:54:14.757Z,18.33
2023-02-11T00:56:42.636Z,17.95
2023-02-11T00:59:09.230Z,17.55
2023-02-11T01:01:35.896Z,17.77
2023-02-11T01:04:02.644Z,16.92
2023-02-11T01:06:29.376Z,17.30
2023-02-11T01:08:55.893Z,17.05
2023-02-11T01:11:22.932Z,17.77
2023-02-11T01:13:51.172Z,18.97
2023-02-11T01:16:18.329Z,18.13
2023-02-11T01:18:44.981Z,18.70
2023-02-11T01:21:11.947Z,18.38
2023-02-11T01:23:38.670Z,19.05
2023-02-11T01:26:05.718Z,19.53
2023-02-11T01:28:33.414Z,17.92
2023-02-11T01:31:01.873Z,18.73
2023-02-11T01:33:29.003Z,17.80
2023-02-11T01:35:55.594Z,19.75
2023-02-11T01:38:24.581Z,19.57
2023-02-11T01:40:54.396Z,18.00
2023-02-11T01:43:21.928Z,18.48
2023-02-11T01:46:02.801Z,18.75
2023-02-11T01:48:32.538Z,18.13
2023-02-11T01:51:04.749Z,17.60
2023-02-11T01:53:33.880Z,19.20
2023-02-11T01:56:00.839Z,18.48
2023-02-11T01:58:30.873Z,17.55
2023-02-11T02:00:57.778Z,17.30
2023-02-11T02:03:26.316Z,18.53
2023-02-11T02:05:59.477Z,19.00
2023-02-11T02:08:35.037Z,18.73
2023-02-11T02:11:01.992Z,17.42
2023-02-11T02:13:30.960Z,18.92
2023-02-11T02:16:00.046Z,18.07
2023-02-11T02:18:39.452Z,18.33
2023-02-11T02:21:46.945Z,17.95
2023-02-11T02:24:38.207Z,16.83
2023-02-11T02:27:29.585Z,18.88
2023-02-11T02:30:30.372Z,17.90
2023-02-11T02:33:25.080Z,17.35
2023-02-11T02:36:04.191Z,16.88
2023-02-11T02:38:34.512Z,15.93
2023-02-11T02:41:06.075Z,17.20
2023-02-11T02:43:34.457Z,16.80
2023-02-11T02:46:14.416Z,17.02
2023-02-11T02:48:42.876Z,17.27
2023-02-11T02:51:23.438Z,16.58
2023-02-11T02:54:04.505Z,17.92
2023-02-11T02:56:36.481Z,16.77
2023-02-11T02:59:33.672Z,17.02
2023-02-11T03:02:10.622Z,17.70
2023-02-11T03:04:50.118Z,17.48
2023-02-11T03:07:26.162Z,17.90
2023-02-11T03:09:59.195Z,17.70
2023-02-11T03:12:28.944Z,18.10
2023-02-11T03:14:55.520Z,16.95
2023-02-11T03:17:26.080Z,16.65
2023-02-11T03:19:54.697Z,16.95
2023-02-11T03:22:26.604Z,18.23
2023-02-11T03:24:54.810Z,17.35
2023-02-11T03:27:28.503Z,16.17
2023-02-11T03:30:01.140Z,17.15
2023-02-11T03:32:31.068Z,18.08
2023-02-11T03:35:04.104Z,16.47
2023-02-11T03:37:35.445Z,16.65
2023-02-11T03:40:07.226Z,16.58
2023-02-11T03:42:39.228Z,17.42
2023-02-11T03:45:09.502Z,16.77
2023-02-11T03:47:38.638Z,16.50
2023-02-11T03:50:08.842Z,17.08
2023-02-11T03:52:37.701Z,17.73
2023-02-11T03:55:08.756Z,16.73
2023-02-11T03:57:35.498Z,17.27
2023-02-11T04:00:02.069Z,16.80
2023-02-11T04:02:31.793Z,17.20
2023-02-11T04:04:58.485Z,16.55
2023-02-11T04:07:26.455Z,17.90
2023-02-11T04:09:53.613Z,16.40
2023-02-11T04:12:20.745Z,17.23
2023-02-11T04:14:47.337Z,17.10
2023-02-11T04:17:13.917Z,16.58
2023-02-11T04:19:40.758Z,18.00
2023-02-11T04:22:08.161Z,18.17
2023-02-11T04:24:36.372Z,16.50
2023-02-11T04:27:03.204Z,16.33
2023-02-11T04:29:29.958Z,18.52
2023-02-11T04:31:56.635Z,17.27
2023-02-11T04:34:23.797Z,17.42
2023-02-11T04:36:50.350Z,17.07
2023-02-11T04:39:17.089Z,16.60
2023-02-11T04:41:45.574Z,15.75
2023-02-11T04:44:12.357Z,17.33
2023-02-11T04:46:39.199Z,17.92
2023-02-11T04:49:05.810Z,18.03
2023-02-11T04:51:32.629Z,16.83
2023-02-11T04:53:59.164Z,17.23
2023-02-11T04:56:25.705Z,17.42
2023-02-11T04:58:53.711Z,18.60
2023-02-11T05:01:20.445Z,17.27
2023-02-11T05:03:47.131Z,17.63
2023-02-11T05:06:14.216Z,17.95
2023-02-11T05:08:40.992Z,17.77
2023-02-11T05:11:08.534Z,16.92
2023-02-11T05:13:35.133Z,17.13
2023-02-11T05:16:03.211Z,16.38
2023-02-11T05:18:29.778Z,17.95
2023-02-11T05:20:56.292Z,18.90
2023-02-11T05:23:23.002Z,19.15
2023-02-11T05:25:49.882Z,18.30
2023-02-11T05:28:16.746Z,15.93
2023-02-11T05:30:43.494Z,18.98
2023-02-11T05:33:11.606Z,17.90
2023-02-11T05:35:38.203Z,17.73
2023-02-11T05:38:04.973Z,17.40
2023-02-11T05:40:31.582Z,18.50
2023-02-11T05:42:58.164Z,18.45
2023-02-11T05:45:24.901Z,18.40
2023-02-11T05:47:51.482Z,18.98
2023-02-11T05:50:19.818Z,18.17
2023-02-11T05:52:46.400Z,19.63
2023-02-11T05:55:13.165Z,18.02
2023-02-11T05:57:39.763Z,18.23
2023-02-11T06:00:07.178Z,17.77
2023-02-11T06:02:33.849Z,18.00
2023-02-11T06:05:00.628Z,18.23
2023-02-11T06:07:28.686Z,18.52
2023-02-11T06:09:55.255Z,18.08
2023-02-11T06:12:21.851Z,17.35
2023-02-11T06:14:48.441Z,18.00
2023-02-11T06:17:15.785Z,19.92
2023-02-11T06:19:42.579Z,19.13
2023-02-11T06:22:09.116Z,18.85
2023-02-11T06:24:59.859Z,18.48
2023-02-11T06:27:24.236Z,18.87
2023-02-11T06:29:50.795Z,18.88
2023-02-11T06:32:39.413Z,19.20
2023-02-11T06:35:04.284Z,18.38
2023-02-11T06:37:30.930Z,18.63
2023-02-11T06:39:58.859Z,18.50
2023-02-11T06:42:25.436Z,17.35
2023-02-11T06:44:52.231Z,18.02
2023-02-11T06:47:18.982Z,18.48
2023-02-11T06:49:45.791Z,18.05
2023-02-11T06:52:12.427Z,17.73
2023-02-11T06:54:39.181Z,18.00
2023-02-11T06:57:07.085Z,17.83
2023-02-11T06:59:33.701Z,19.55
2023-02-11T07:02:00.368Z,20.40
2023-02-11T07:04:27.239Z,19.27
2023-02-11T07:06:53.786Z,20.52
2023-02-11T07:09:20.520Z,19.70
2023-02-11T07:11:47.089Z,17.65
2023-02-11T07:14:15.071Z,18.65
2023-02-11T07:16:41.821Z,19.03
2023-02-11T07:19:08.396Z,17.52
2023-02-11T07:21:35.020Z,18.08
2023-02-11T07:24:01.650Z,17.67
2023-02-11T07:26:28.304Z,18.45
2023-02-11T07:28:55.097Z,18.57
2023-02-11T07:31:24.743Z,17.63
2023-02-11T07:33:52.886Z,18.60
2023-02-11T07:36:19.563Z,17.90
2023-02-11T07:38:46.415Z,18.85
2023-02-11T07:41:15.158Z,17.90
2023-02-11T07:43:42.541Z,18.67
2023-02-11T07:46:11.582Z,18.88
2023-02-11T07:48:40.167Z,17.92
2023-02-11T07:51:08.805Z,18.17
2023-02-11T07:53:35.636Z,18.50
2023-02-11T07:56:03.273Z,17.20
2023-02-11T07:58:29.931Z,19.48
2023-02-11T08:01:01.088Z,18.70
2023-02-11T08:03:27.701Z,18.42
2023-02-11T08:05:55.730Z,17.80
2023-02-11T08:08:22.245Z,20.38
2023-02-11T08:10:49.162Z,18.83
2023-02-11T08:13:15.895Z,19.45
2023-02-11T08:15:42.482Z,18.40
2023-02-11T08:18:09.021Z,17.60
2023-02-11T08:20:35.746Z,18.58
2023-02-11T08:23:05.743Z,19.13
2023-02-11T08:25:32.588Z,19.88
2023-02-11T08:27:59.151Z,19.40
2023-02-11T08:30:27.386Z,18.80
2023-02-11T08:32:54.120Z,19.17
2023-02-11T08:35:20.866Z,19.08
2023-02-11T08:37:47.410Z,17.88
2023-02-11T08:40:15.560Z,17.23
2023-02-11T08:42:42.117Z,18.07
2023-02-11T08:45:09.244Z,18.63
2023-02-11T08:47:36.077Z,19.42
2023-02-11T08:50:03.440Z,18.65
2023-02-11T08:52:30.140Z,19.92
2023-02-11T08:54:56.903Z,18.53
2023-02-11T08:57:24.861Z,19.08
2023-02-11T08:59:51.374Z,18.52
2023-02-11T09:02:18.126Z,19.35
2023-02-11T09:04:44.666Z,18.40
2023-02-11T09:07:11.384Z,17.30
2023-02-11T09:09:37.986Z,18.52
2023-02-11T09:12:05.358Z,17.88
2023-02-11T09:14:33.358Z,19.38
2023-02-11T09:17:00.149Z,17.45
2023-02-11T09:19:26.750Z,17.77
2023-02-11T09:21:53.321Z,19.13
2023-02-11T09:24:19.849Z,19.35
2023-02-11T09:26:46.758Z,18.92
2023-02-11T09:29:13.291Z,17.02
2023-02-11T09:31:41.337Z,17.87
2023-02-11T09:34:08.396Z,17.77
2023-02-11T09:36:37.869Z,19.42
2023-02-11T09:39:06.834Z,18.55
2023-02-11T09:41:47.607Z,19.50
2023-02-11T09:44:20.093Z,19.43
2023-02-11T09:46:54.216Z,19.02
2023-02-11T09:49:26.006Z,20.00
2023-02-11T09:51:58.637Z,19.65
2023-02-11T09:54:31.498Z,20.33
2023-02-11T09:56:58.081Z,18.97
2023-02-11T09:59:24.656Z,18.15
2023-02-11T10:01:57.519Z,18.75
2023-02-11T10:04:42.538Z,20.67
2023-02-11T10:07:16.670Z,19.40
2023-02-11T10:09:56.945Z,19.93
2023-02-11T10:12:38.726Z,21.30
2023-02-11T10:15:33.352Z,19.50
2023-02-11T10:18:21.155Z,18.52
2023-02-11T10:20:54.291Z,18.35
2023-02-11T10:23:25.152Z,20.33
2023-02-11T10:25:53.285Z,17.55
2023-02-11T10:28:24.487Z,18.30
2023-02-11T10:30:58.648Z,18.90
2023-02-11T10:33:30.886Z,18.60
2023-02-11T10:35:57.484Z,21.33
2023-02-11T10:38:24.500Z,18.75
2023-02-11T10:40:52.156Z,18.33
2023-02-11T10:43:23.649Z,20.00
2023-02-11T10:45:52.695Z,18.95
2023-02-11T10:48:42.897Z,18.60
2023-02-11T10:51:18.446Z,17.75
2023-02-11T10:53:45.694Z,17.73
2023-02-11T10:56:19.869Z,17.92
2023-02-11T10:58:55.947Z,18.45
2023-02-11T11:01:24.992Z,16.40
2023-02-11T11:03:53.203Z,16.90
2023-02-11T11:06:30.398Z,17.48
2023-02-11T11:08:57.020Z,16.92
2023-02-11T11:11:25.042Z,15.85
2023-02-11T11:13:56.650Z,17.87
2023-02-11T11:16:25.780Z,16.48
2023-02-11T11:19:21.336Z,16.90
2023-02-11T11:21:50.336Z,16.98
2023-02-11T11:24:19.819Z,16.90
2023-02-11T11:26:48.843Z,16.87
2023-02-11T11:29:19.050Z,16.77
2023-02-11T11:31:49.160Z,16.65
2023-02-11T11:34:24.935Z,16.23
2023-02-11T11:36:51.779Z,17.40
2023-02-11T11:39:22.808Z,14.67
2023-02-11T11:41:51.604Z,16.88
2023-02-11T11:44:28.046Z,17.20
2023-02-11T11:47:16.188Z,17.13
2023-02-11T11:49:51.474Z,16.48
2023-02-11T11:52:33.603Z,16.77
2023-02-11T11:55:09.570Z,17.50
2023-02-11T11:57:38.809Z,17.60
2023-02-11T12:00:13.636Z,18.55
2023-02-11T12:03:04.965Z,16.70
2023-02-11T12:05:40.855Z,15.33
2023-02-11T12:08:16.835Z,17.63
2023-02-11T12:10:57.332Z,17.65
2023-02-11T12:13:43.659Z,17.95
2023-02-11T12:16:19.758Z,18.77
2023-02-11T12:19:18.133Z,18.20
2023-02-11T12:21:58.474Z,17.75
2023-02-11T12:24:38.162Z,18.25
2023-02-11T12:27:11.420Z,16.25
2023-02-11T12:29:49.122Z,17.13
2023-02-11T12:32:24.020Z,18.07
2023-02-11T12:35:17.189Z,16.80
2023-02-11T12:38:08.848Z,18.17
2023-02-11T12:40:43.737Z,16.80
2023-02-11T12:43:20.356Z,17.35
2023-02-11T12:46:02.049Z,18.17
2023-02-11T12:48:43.857Z,17.73
2023-02-11T12:51:23.854Z,17.08
2023-02-11T12:54:13.002Z,16.13
2023-02-11T12:56:46.615Z,15.35
2023-02-11T12:59:20.594Z,16.80
2023-02-11T13:01:50.361Z,16.40
2023-02-11T13:04:23.573Z,17.13
2023-02-11T13:06:55.686Z,14.80
2023-02-11T13:09:27.885Z,17.40
2023-02-11T13:11:58.408Z,16.73
2023-02-11T13:14:29.276Z,17.98
2023-02-11T13:16:56.247Z,17.30
2023-02-11T13:19:31.213Z,16.65
2023-02-11T13:22:11.169Z,17.20
2023-02-11T13:24:43.797Z,17.40
2023-02-11T13:27:26.150Z,16.92
2023-02-11T13:30:20.721Z,18.58
2023-02-11T13:33:17.894Z,19.38
2023-02-11T13:35:48.456Z,18.38
2023-02-11T13:38:20.925Z,16.60
2023-02-11T13:41:01.548Z,17.25
2023-02-11T13:43:30.343Z,17.65
2023-02-11T13:45:59.637Z,15.90
2023-02-11T13:48:28.661Z,16.63
2023-02-11T13:50:59.378Z,15.00
2023-02-11T13:53:27.470Z,15.80
2023-02-11T13:56:06.666Z,16.08
2023-02-11T13:58:35.433Z,17.45
2023-02-11T14:01:02.203Z,18.85
2023-02-11T14:03:31.900Z,15.67
2023-02-11T14:06:22.626Z,16.50
2023-02-11T14:09:01.205Z,16.52
2023-02-11T14:11:47.987Z,14.95
2023-02-11T14:14:17.956Z,15.75
2023-02-11T14:17:20.993Z,16.20
2023-02-11T14:19:48.352Z,16.05
2023-02-11T14:22:18.108Z,16.17
2023-02-11T14:24:51.757Z,16.60
2023-02-11T14:27:25.692Z,15.52
2023-02-11T14:30:10.639Z,15.27
2023-02-11T14:32:48.635Z,16.17
2023-02-11T14:35:28.236Z,15.30
2023-02-11T14:38:01.696Z,14.85
2023-02-11T14:40:32.245Z,15.15
2023-02-11T14:43:16.513Z,16.37
2023-02-11T14:45:45.334Z,16.55
2023-02-11T14:48:16.115Z,15.35
2023-02-11T14:50:46.074Z,15.05
2023-02-11T14:53:16.333Z,15.88
2023-02-11T14:55:45.906Z,15.50
2023-02-11T14:58:19.123Z,14.90
2023-02-11T15:00:55.057Z,16.38
2023-02-11T15:03:27.183Z,15.80
2023-02-11T15:05:56.098Z,15.10
2023-02-11T15:08:23.094Z,14.80
2023-02-11T15:10:50.330Z,14.60
2023-02-11T15:13:21.446Z,14.80
2023-02-11T15:15:52.233Z,14.73
2023-02-11T15:18:22.014Z,15.02
2023-02-11T15:20:50.382Z,13.87
2023-02-11T15:23:22.400Z,15.57
2023-02-11T15:25:49.161Z,16.23
2023-02-11T15:28:23.588Z,14.95
2023-02-11T15:30:57.739Z,17.23
2023-02-11T15:33:24.418Z,15.23
2023-02-11T15:35:51.078Z,15.27
2023-02-11T15:38:17.921Z,17.08
2023-02-11T15:40:53.619Z,17.05
2023-02-11T15:43:21.773Z,15.95
2023-02-11T15:45:58.805Z,16.73
2023-02-11T15:48:35.779Z,16.05
2023-02-11T15:51:08.256Z,14.90
2023-02-11T15:53:38.440Z,15.90
2023-02-11T15:56:11.702Z,21.25
2023-02-11T15:58:41.865Z,16.17
2023-02-11T16:01:10.194Z,16.77
2023-02-11T16:03:36.901Z,17.83
2023-02-11T16:06:21.520Z,16.48
2023-02-11T16:09:00.513Z,17.50
2023-02-11T16:11:29.463Z,13.60
2023-02-11T16:13:58.470Z,13.70
2023-02-11T16:16:27.840Z,15.98
2023-02-11T16:19:04.747Z,16.20
2023-02-11T16:21:34.923Z,14.93
2023-02-11T16:24:01.919Z,16.60
2023-02-11T16:26:32.558Z,13.98
2023-02-11T16:29:06.483Z,14.00
2023-02-11T16:31:34.471Z,14.52
2023-02-11T16:34:01.121Z,15.52
2023-02-11T16:36:27.805Z,15.20
2023-02-11T16:38:54.330Z,14.48
2023-02-11T16:41:20.856Z,14.52
2023-02-11T16:43:47.376Z,13.68
2023-02-11T16:46:16.064Z,15.43
2023-02-11T16:48:43.298Z,14.40
2023-02-11T16:51:11.744Z,15.00
2023-02-11T16:53:38.397Z,15.45
2023-02-11T16:56:05.680Z,16.02
2023-02-11T16:58:32.338Z,15.88
2023-02-11T17:00:58.926Z,20.10
2023-02-11T17:03:29.834Z,22.80
2023-02-11T17:05:56.775Z,16.05
2023-02-11T17:08:23.374Z,13.70
2023-02-11T17:10:50.332Z,15.70
2023-02-11T17:13:17.192Z,14.33
2023-02-11T17:15:43.707Z,14.52
2023-02-11T17:18:13.062Z,15.32
2023-02-11T17:20:41.688Z,16.48
2023-02-11T17:23:08.662Z,15.15
2023-02-11T17:25:35.659Z,15.33
2023-02-11T17:28:02.243Z,15.88
2023-02-11T17:30:28.888Z,16.55
2023-02-11T17:32:55.473Z,15.20
2023-02-11T17:35:21.963Z,14.98
2023-02-11T17:37:49.901Z,15.20
2023-02-11T17:40:16.659Z,15.13
2023-02-11T17:42:43.371Z,16.10
2023-02-11T17:45:10.433Z,15.07
2023-02-11T17:47:37.034Z,14.65
2023-02-11T17:50:04.483Z,15.50
2023-02-11T17:52:31.001Z,14.65
2023-02-11T17:54:58.863Z,15.65
2023-02-11T17:57:25.447Z,14.52
2023-02-11T17:59:52.043Z,15.73
2023-02-11T18:02:18.644Z,13.83
2023-02-11T18:04:45.492Z,14.73
2023-02-11T18:07:12.416Z,14.90
2023-02-11T18:09:40.118Z,14.70
2023-02-11T18:12:08.969Z,15.10
2023-02-11T18:14:35.683Z,17.37
2023-02-11T18:17:02.253Z,16.58
2023-02-11T18:19:28.870Z,13.48
2023-02-11T18:21:55.500Z,16.23
2023-02-11T18:24:22.087Z,16.58
2023-02-11T18:26:48.650Z,16.17
2023-02-11T18:29:16.597Z,16.42
2023-02-11T18:31:43.258Z,16.85
2023-02-11T18:34:11.047Z,16.00
2023-02-11T18:36:37.738Z,14.68
2023-02-11T18:39:04.581Z,14.73
2023-02-11T18:41:31.169Z,16.48
2023-02-11T18:43:58.078Z,16.40
2023-02-11T18:46:27.162Z,15.45
2023-02-11T18:48:56.104Z,14.90
2023-02-11T18:51:23.302Z,14.77
2023-02-11T18:53:50.118Z,20.48
2023-02-11T18:56:18.424Z,15.40
2023-02-11T18:58:45.090Z,17.77
2023-02-11T19:01:13.778Z,16.08
2023-02-11T19:03:41.794Z,15.13
2023-02-11T19:06:14.430Z,15.43
2023-02-11T19:08:40.994Z,15.00
2023-02-11T19:11:07.785Z,14.80
2023-02-11T19:13:34.345Z,16.13
2023-02-11T19:16:05.336Z,15.17
2023-02-11T19:18:32.129Z,14.88
2023-02-11T19:21:00.154Z,13.52
2023-02-11T19:23:26.709Z,14.13
2023-02-11T19:25:53.431Z,13.65
2023-02-11T19:28:20.200Z,13.47
2023-02-11T19:30:46.843Z,13.25
2023-02-11T19:33:13.436Z,14.13
2023-02-11T19:35:40.357Z,13.27
2023-02-11T19:38:08.305Z,14.68
2023-02-11T19:40:34.866Z,13.63
2023-02-11T19:43:01.396Z,14.23
2023-02-11T19:45:28.038Z,13.63
2023-02-11T19:47:55.884Z,14.48
2023-02-11T19:50:22.528Z,14.35
2023-02-11T19:52:49.201Z,13.53
2023-02-11T19:55:17.466Z,14.25
2023-02-11T19:57:44.212Z,16.05
2023-02-11T20:00:11.806Z,15.57
2023-02-11T20:02:38.531Z,15.52
2023-02-11T20:05:05.798Z,16.20
2023-02-11T20:07:32.446Z,18.33
2023-02-11T20:09:58.980Z,15.73
2023-02-11T20:12:27.076Z,14.15
2023-02-11T20:14:53.596Z,15.35
2023-02-11T20:17:20.343Z,13.93
2023-02-11T20:19:46.929Z,15.77
2023-02-11T20:22:13.533Z,14.65
2023-02-11T20:24:40.269Z,14.18
2023-02-11T20:27:06.843Z,16.85
2023-02-11T20:29:34.794Z,14.50
2023-02-11T20:32:01.493Z,15.00
2023-02-11T20:34:28.122Z,15.05
2023-02-11T20:36:55.009Z,14.15
2023-02-11T20:39:23.190Z,15.50
2023-02-11T20:41:50.435Z,14.43
2023-02-11T20:44:17.038Z,15.55
2023-02-11T20:46:45.635Z,15.27
2023-02-11T20:49:13.448Z,14.68
2023-02-11T20:51:40.035Z,16.52
2023-02-11T20:54:07.264Z,15.40
2023-02-11T20:56:35.825Z,19.25
2023-02-11T20:59:03.792Z,14.60
2023-02-11T21:01:32.323Z,15.00
2023-02-11T21:04:03.553Z,15.77
2023-02-11T21:06:32.427Z,14.70
2023-02-11T21:08:59.037Z,14.93
2023-02-11T21:11:25.642Z,16.60
2023-02-11T21:13:52.246Z,17.02
2023-02-11T21:16:22.255Z,16.45
2023-02-11T21:18:50.028Z,20.30
2023-02-11T21:21:19.188Z,17.73
2023-02-11T21:23:45.897Z,17.58
2023-02-11T21:26:12.785Z,16.98
2023-02-11T21:28:41.040Z,18.30
2023-02-11T21:31:09.370Z,21.30
2023-02-11T21:33:36.129Z,16.95
2023-02-11T21:36:06.836Z,20.17
2023-02-11T21:38:34.912Z,19.52
2023-02-11T21:41:05.019Z,17.05
2023-02-11T21:43:31.582Z,17.20
2023-02-11T21:45:58.228Z,17.75
2023-02-11T21:48:24.913Z,16.80
2023-02-11T21:50:51.662Z,18.63
2023-02-11T21:53:18.405Z,18.17
2023-02-11T21:55:46.350Z,18.23
2023-02-11T21:58:13.490Z,17.60
2023-02-11T22:00:40.319Z,18.30
2023-02-11T22:03:07.059Z,16.90
2023-02-11T22:05:33.697Z,18.88
2023-02-11T22:08:00.296Z,16.80
2023-02-11T22:10:26.812Z,19.45
2023-02-11T22:12:54.709Z,18.65
2023-02-11T22:15:21.242Z,17.60
2023-02-11T22:17:47.934Z,18.33
2023-02-11T22:20:14.540Z,18.33
2023-02-11T22:22:41.127Z,18.00
2023-02-11T22:25:08.245Z,17.77
2023-02-11T22:27:34.893Z,18.70
2023-02-11T22:30:03.006Z,16.80
2023-02-11T22:32:29.719Z,16.27
2023-02-11T22:34:56.270Z,16.65
2023-02-11T22:37:23.132Z,18.60
2023-02-11T22:39:49.950Z,17.08
2023-02-11T22:42:16.782Z,17.52
2023-02-11T22:44:43.326Z,17.00
2023-02-11T22:47:11.282Z,17.48
2023-02-11T22:49:38.109Z,18.92
2023-02-11T22:52:04.901Z,18.58
2023-02-11T22:54:31.455Z,17.60
2023-02-11T22:56:58.024Z,17.03
2023-02-11T22:59:24.590Z,22.05
2023-02-11T23:01:51.273Z,20.38
2023-02-11T23:04:20.075Z,18.65
2023-02-11T23:06:46.752Z,18.15
2023-02-11T23:09:13.576Z,19.03
2023-02-11T23:11:40.233Z,20.00
2023-02-11T23:14:07.549Z,20.35
2023-02-11T23:16:34.879Z,18.65
2023-02-11T23:19:03.906Z,16.77
2023-02-11T23:21:34.235Z,18.43
2023-02-11T23:24:02.924Z,19.70
2023-02-11T23:26:30.396Z,18.95
2023-02-11T23:28:58.499Z,18.70
2023-02-11T23:31:27.093Z,19.77
2023-02-11T23:33:54.167Z,19.93
2023-02-11T23:36:21.496Z,17.50
2023-02-11T23:38:49.561Z,20.42
2023-02-11T23:41:16.826Z,24.63
2023-02-11T23:43:43.530Z,18.38
2023-02-11T23:46:10.437Z,18.37
2023-02-11T23:48:37.198Z,17.40
2023-02-11T23:51:04.168Z,20.63
2023-02-11T23:53:30.909Z,19.15
2023-02-11T23:55:58.814Z,20.70
2023-02-11T23:58:25.428Z,19.53
